createdAt,value
2023-02-03T00:01:08.838Z,9.11
2023-02-03T00:03:40.878Z,9.14
2023-02-03T00:06:14.135Z,9.18
2023-02-03T00:08:44.512Z,9.19
2023-02-03T00:11:13.466Z,9.08
2023-02-03T00:13:41.334Z,9.28
2023-02-03T00:16:11.217Z,9.26
2023-02-03T00:18:40.930Z,9.16
2023-02-03T00:21:09.594Z,9.16
2023-02-03T00:23:39.730Z,9.17
2023-02-03T00:26:11.202Z,9.10
2023-02-03T00:28:41.070Z,9.05
2023-02-03T00:31:22.376Z,9.03
2023-02-03T00:33:57.544Z,8.95
2023-02-03T00:36:28.557Z,9.02
2023-02-03T00:39:02.791Z,8.96
2023-02-03T00:41:35.151Z,8.98
2023-02-03T00:44:03.469Z,8.94
2023-02-03T00:46:33.961Z,9.00
2023-02-03T00:49:01.834Z,8.98
2023-02-03T00:51:29.820Z,9.11
2023-02-03T00:53:58.000Z,8.91
2023-02-03T00:56:26.687Z,9.18
2023-02-03T00:58:57.153Z,9.05
2023-02-03T01:01:27.667Z,9.06
2023-02-03T01:03:57.247Z,8.85
2023-02-03T01:06:26.319Z,9.01
2023-02-03T01:08:55.980Z,8.79
2023-02-03T01:11:29.272Z,8.85
2023-02-03T01:14:01.995Z,8.95
2023-02-03T01:16:37.241Z,9.16
2023-02-03T01:19:07.675Z,9.25
2023-02-03T01:21:37.380Z,8.98
2023-02-03T01:24:07.501Z,9.00
2023-02-03T01:26:37.956Z,8.90
2023-02-03T01:29:09.256Z,8.84
2023-02-03T01:31:42.368Z,9.07
2023-02-03T01:34:14.338Z,9.00
2023-02-03T01:36:42.612Z,8.97
2023-02-03T01:39:12.745Z,9.01
2023-02-03T01:41:42.952Z,9.03
2023-02-03T01:44:39.508Z,9.12
2023-02-03T01:47:24.406Z,9.21
2023-02-03T01:50:03.164Z,9.09
2023-02-03T01:52:33.524Z,9.34
2023-02-03T01:55:09.017Z,9.16
2023-02-03T01:57:44.797Z,9.36
2023-02-03T02:00:13.962Z,9.02
2023-02-03T02:02:49.204Z,9.22
2023-02-03T02:05:26.312Z,9.13
2023-02-03T02:07:57.876Z,9.38
2023-02-03T02:10:26.544Z,9.22
2023-02-03T02:12:57.690Z,9.15
2023-02-03T02:15:37.018Z,9.13
2023-02-03T02:18:22.464Z,9.25
2023-02-03T02:21:17.516Z,9.27
2023-02-03T02:24:13.122Z,9.44
2023-02-03T02:26:52.900Z,9.15
2023-02-03T02:29:57.318Z,9.28
2023-02-03T02:32:45.166Z,9.32
2023-02-03T02:35:22.505Z,9.20
2023-02-03T02:37:57.875Z,9.32
2023-02-03T02:40:38.750Z,9.16
2023-02-03T02:43:14.391Z,9.34
2023-02-03T02:45:49.559Z,9.26
2023-02-03T02:48:33.739Z,9.32
2023-02-03T02:51:09.576Z,9.27
2023-02-03T02:53:45.079Z,9.31
2023-02-03T02:56:17.263Z,9.47
2023-02-03T02:58:49.641Z,9.42
2023-02-03T03:01:22.570Z,9.38
2023-02-03T03:03:54.979Z,9.47
2023-02-03T03:06:27.294Z,9.45
2023-02-03T03:09:02.569Z,9.30
2023-02-03T03:14:53.659Z,9.42
2023-02-03T03:17:27.830Z,9.46
2023-02-03T03:20:01.454Z,9.33
2023-02-03T03:22:35.084Z,9.40
2023-02-03T03:25:11.198Z,9.52
2023-02-03T03:27:43.379Z,9.36
2023-02-03T03:30:16.872Z,9.48
2023-02-03T03:32:45.272Z,9.35
2023-02-03T03:35:15.148Z,9.45
2023-02-03T03:37:46.552Z,9.29
2023-02-03T03:40:22.223Z,9.34
2023-02-03T03:42:58.310Z,9.30
2023-02-03T03:45:32.235Z,9.41
2023-02-03T03:48:14.806Z,9.29
2023-02-03T03:50:49.445Z,9.47
2023-02-03T03:53:20.847Z,9.59
2023-02-03T03:55:53.093Z,9.47
2023-02-03T03:58:25.999Z,9.51
2023-02-03T04:00:59.493Z,9.47
2023-02-03T04:03:34.307Z,9.38
2023-02-03T04:06:06.920Z,9.39
2023-02-03T04:08:37.370Z,9.49
2023-02-03T04:11:06.176Z,9.47
2023-02-03T04:13:37.921Z,9.49
2023-02-03T04:16:12.915Z,9.42
2023-02-03T04:18:41.835Z,9.44
2023-02-03T04:21:12.879Z,9.38
2023-02-03T04:23:42.151Z,9.30
2023-02-03T04:26:10.036Z,9.39
2023-02-03T04:28:38.162Z,9.60
2023-02-03T04:31:09.519Z,9.54
2023-02-03T04:33:39.269Z,9.41
2023-02-03T04:36:10.219Z,9.51
2023-02-03T04:38:43.933Z,9.31
2023-02-03T04:41:14.725Z,9.26
2023-02-03T04:43:45.680Z,9.03
2023-02-03T04:46:15.343Z,9.17
2023-02-03T04:48:44.283Z,9.13
2023-02-03T04:51:14.846Z,8.99
2023-02-03T04:53:45.675Z,9.00
2023-02-03T04:56:16.042Z,9.19
2023-02-03T04:58:44.872Z,8.89
2023-02-03T05:01:16.232Z,8.89
2023-02-03T05:03:44.647Z,8.87
2023-02-03T05:06:13.131Z,9.00
2023-02-03T05:08:48.760Z,8.74
2023-02-03T05:11:17.845Z,8.72
2023-02-03T05:13:46.927Z,8.87
2023-02-03T05:16:17.144Z,8.94
2023-02-03T05:18:47.536Z,8.83
2023-02-03T05:21:18.497Z,8.71
2023-02-03T05:23:51.715Z,8.79
2023-02-03T05:26:21.894Z,8.78
2023-02-03T05:28:51.099Z,8.95
2023-02-03T05:31:24.659Z,8.76
2023-02-03T05:33:55.003Z,8.86
2023-02-03T05:36:25.864Z,8.65
2023-02-03T05:38:55.967Z,8.92
2023-02-03T05:41:41.279Z,8.91
2023-02-03T05:44:09.607Z,8.93
2023-02-03T05:46:39.341Z,8.91
2023-02-03T05:49:09.760Z,8.86
2023-02-03T05:51:39.453Z,8.92
2023-02-03T05:54:15.305Z,9.07
2023-02-03T05:56:44.854Z,8.93
2023-02-03T05:59:14.886Z,8.86
2023-02-03T06:02:05.497Z,8.93
2023-02-03T06:04:39.570Z,8.94
2023-02-03T06:07:07.982Z,8.89
2023-02-03T06:09:40.811Z,8.92
2023-02-03T06:12:09.001Z,8.98
2023-02-03T06:14:39.740Z,8.99
2023-02-03T06:17:07.880Z,8.98
2023-02-03T06:19:38.554Z,9.12
2023-02-03T06:22:06.928Z,9.10
2023-02-03T06:24:34.918Z,9.01
2023-02-03T06:27:06.917Z,9.16
2023-02-03T06:29:35.662Z,9.16
2023-02-03T06:32:03.947Z,9.18
2023-02-03T06:34:37.129Z,9.07
2023-02-03T06:37:05.366Z,9.03
2023-02-03T06:39:34.080Z,9.06
2023-02-03T06:42:02.644Z,9.21
2023-02-03T06:44:32.058Z,9.28
2023-02-03T06:47:02.833Z,9.13
2023-02-03T06:49:31.239Z,9.27
2023-02-03T06:51:59.430Z,9.30
2023-02-03T06:54:32.224Z,9.21
2023-02-03T06:57:03.219Z,9.12
2023-02-03T06:59:33.120Z,9.08
2023-02-03T07:02:05.213Z,9.27
2023-02-03T07:04:38.775Z,9.20
2023-02-03T07:07:11.250Z,9.20
2023-02-03T07:09:46.751Z,9.18
2023-02-03T07:12:15.084Z,9.25
2023-02-03T07:14:45.055Z,9.20
2023-02-03T07:17:13.339Z,9.22
2023-02-03T07:19:48.173Z,9.17
2023-02-03T07:22:16.101Z,9.41
2023-02-03T07:24:45.717Z,9.22
2023-02-03T07:27:16.440Z,9.06
2023-02-03T07:29:49.314Z,9.26
2023-02-03T07:32:17.625Z,9.27
2023-02-03T07:34:46.135Z,9.39
2023-02-03T07:37:16.605Z,9.31
2023-02-03T07:39:47.063Z,9.40
2023-02-03T07:42:15.797Z,9.38
2023-02-03T07:44:47.289Z,9.54
2023-02-03T07:47:18.580Z,9.48
2023-02-03T07:49:47.099Z,9.58
2023-02-03T07:52:16.358Z,9.49
2023-02-03T07:54:46.637Z,9.52
2023-02-03T07:57:17.385Z,9.46
2023-02-03T07:59:52.303Z,9.53
2023-02-03T08:02:22.515Z,9.68
2023-02-03T08:04:52.054Z,9.74
2023-02-03T08:07:20.273Z,9.72
2023-02-03T08:09:48.321Z,9.74
2023-02-03T08:12:17.868Z,9.82
2023-02-03T08:14:50.776Z,9.75
2023-02-03T08:17:19.101Z,9.87
2023-02-03T08:19:47.356Z,10.06
2023-02-03T08:22:23.418Z,10.04
2023-02-03T08:24:51.515Z,10.24
2023-02-03T08:27:21.626Z,9.84
2023-02-03T08:29:54.069Z,9.92
2023-02-03T08:32:23.262Z,9.84
2023-02-03T08:34:51.932Z,10.08
2023-02-03T08:37:24.336Z,10.22
2023-02-03T08:39:53.971Z,10.14
2023-02-03T08:42:25.794Z,10.09
2023-02-03T08:44:57.137Z,10.00
2023-02-03T08:47:26.877Z,10.28
2023-02-03T08:49:57.439Z,10.28
2023-02-03T08:52:29.729Z,10.20
2023-02-03T08:54:59.907Z,10.37
2023-02-03T08:57:28.013Z,10.62
2023-02-03T09:00:04.411Z,10.32
2023-02-03T09:02:32.563Z,10.40
2023-02-03T09:05:00.754Z,10.52
2023-02-03T09:07:30.362Z,10.61
2023-02-03T09:09:59.707Z,10.57
2023-02-03T09:12:29.163Z,10.41
2023-02-03T09:14:58.889Z,10.72
2023-02-03T09:17:30.529Z,10.83
2023-02-03T09:20:01.874Z,10.39
2023-02-03T09:22:39.039Z,10.53
2023-02-03T09:25:10.306Z,10.72
2023-02-03T09:27:41.121Z,10.76
2023-02-03T09:30:13.935Z,10.62
2023-02-03T09:32:47.313Z,10.43
2023-02-03T09:35:23.534Z,10.76
2023-02-03T09:37:56.706Z,10.74
2023-02-03T09:40:34.072Z,10.59
2023-02-03T09:43:14.962Z,10.77
2023-02-03T09:45:48.312Z,10.79
2023-02-03T09:48:24.256Z,11.11
2023-02-03T09:50:54.504Z,11.03
2023-02-03T09:53:31.607Z,10.85
2023-02-03T09:56:04.398Z,11.08
2023-02-03T09:58:36.520Z,11.28
2023-02-03T10:01:13.215Z,11.37
2023-02-03T10:03:47.171Z,11.44
2023-02-03T10:06:29.004Z,11.42
2023-02-03T10:09:09.959Z,11.27
2023-02-03T10:11:55.947Z,11.35
2023-02-03T10:14:39.248Z,11.27
2023-02-03T10:17:22.045Z,11.37
2023-02-03T10:20:02.117Z,11.42
2023-02-03T10:22:35.598Z,11.55
2023-02-03T10:25:11.308Z,11.35
2023-02-03T10:27:39.435Z,11.81
2023-02-03T10:30:20.279Z,11.49
2023-02-03T10:32:53.329Z,11.55
2023-02-03T10:35:29.704Z,11.30
2023-02-03T10:38:01.406Z,11.44
2023-02-03T10:40:31.169Z,11.65
2023-02-03T10:43:18.682Z,11.55
2023-02-03T10:45:48.388Z,11.59
2023-02-03T10:48:19.740Z,11.73
2023-02-03T10:50:53.980Z,11.69
2023-02-03T10:53:30.401Z,11.94
2023-02-03T10:56:18.188Z,11.99
2023-02-03T10:58:53.181Z,11.58
2023-02-03T11:01:30.805Z,11.53
2023-02-03T11:04:01.556Z,11.75
2023-02-03T11:06:36.661Z,11.92
2023-02-03T11:09:25.441Z,12.10
2023-02-03T11:12:10.680Z,12.00
2023-02-03T11:14:42.921Z,12.00
2023-02-03T11:17:18.492Z,11.95
2023-02-03T11:19:51.351Z,11.91
2023-02-03T11:22:33.432Z,11.75
2023-02-03T11:25:04.217Z,11.91
2023-02-03T11:27:35.691Z,12.37
2023-02-03T11:30:16.516Z,12.10
2023-02-03T11:32:53.185Z,11.72
2023-02-03T11:35:24.412Z,11.87
2023-02-03T11:37:56.785Z,11.89
2023-02-03T11:40:31.180Z,11.82
2023-02-03T11:43:15.727Z,11.69
2023-02-03T11:45:47.158Z,11.86
2023-02-03T11:48:28.823Z,11.43
2023-02-03T11:51:03.645Z,11.53
2023-02-03T11:53:56.675Z,11.50
2023-02-03T11:56:59.145Z,11.17
2023-02-03T11:59:49.255Z,11.32
2023-02-03T12:02:53.706Z,11.37
2023-02-03T12:06:08.253Z,11.46
2023-02-03T12:08:53.037Z,11.06
2023-02-03T12:11:35.699Z,11.23
2023-02-03T12:14:28.826Z,11.35
2023-02-03T12:17:28.416Z,11.36
2023-02-03T12:20:20.350Z,11.31
2023-02-03T12:22:59.172Z,11.28
2023-02-03T12:25:49.250Z,11.29
2023-02-03T12:28:40.644Z,11.14
2023-02-03T12:31:17.424Z,11.14
2023-02-03T12:33:52.484Z,11.09
2023-02-03T12:36:29.221Z,11.35
2023-02-03T12:39:06.206Z,11.10
2023-02-03T12:41:42.341Z,10.74
2023-02-03T12:44:24.136Z,10.59
2023-02-03T12:47:02.240Z,10.79
2023-02-03T12:49:41.015Z,10.56
2023-02-03T12:52:19.969Z,10.55
2023-02-03T12:55:01.220Z,10.38
2023-02-03T12:57:39.525Z,10.50
2023-02-03T13:00:31.841Z,10.40
2023-02-03T13:03:12.577Z,10.14
2023-02-03T13:05:47.580Z,10.16
2023-02-03T13:08:25.921Z,9.99
2023-02-03T13:11:02.081Z,9.82
2023-02-03T13:13:43.714Z,9.84
2023-02-03T13:16:15.821Z,9.85
2023-02-03T13:18:48.051Z,9.61
2023-02-03T13:21:16.804Z,9.66
2023-02-03T13:23:48.106Z,9.64
2023-02-03T13:26:50.660Z,9.69
2023-02-03T13:29:43.415Z,9.73
2023-02-03T13:32:25.921Z,9.75
2023-02-03T13:35:24.754Z,9.71
2023-02-03T13:38:33.435Z,9.61
2023-02-03T13:41:12.225Z,9.67
2023-02-03T13:43:45.705Z,9.64
2023-02-03T13:46:27.427Z,9.69
2023-02-03T13:48:59.208Z,9.72
2023-02-03T13:51:34.542Z,9.65
2023-02-03T13:54:08.006Z,9.75
2023-02-03T13:56:45.184Z,9.76
2023-02-03T13:59:33.296Z,9.68
2023-02-03T14:02:32.356Z,9.74
2023-02-03T14:05:01.916Z,9.86
2023-02-03T14:07:34.415Z,9.74
2023-02-03T14:10:17.944Z,9.62
2023-02-03T14:13:01.048Z,9.63
2023-02-03T14:15:44.652Z,9.54
2023-02-03T14:18:36.030Z,9.70
2023-02-03T14:21:15.979Z,9.90
2023-02-03T14:23:51.591Z,9.92
2023-02-03T14:26:44.253Z,9.86
2023-02-03T14:29:26.240Z,9.80
2023-02-03T14:32:00.864Z,9.67
2023-02-03T14:34:34.168Z,9.88
2023-02-03T14:37:27.832Z,9.72
2023-02-03T14:40:19.474Z,9.67
2023-02-03T14:43:11.615Z,9.73
2023-02-03T14:46:04.895Z,9.76
2023-02-03T14:48:56.623Z,9.81
2023-02-03T14:51:45.636Z,9.65
2023-02-03T14:54:28.296Z,9.63
2023-02-03T14:57:23.490Z,9.60
2023-02-03T14:59:59.054Z,9.71
2023-02-03T15:02:31.590Z,9.68
2023-02-03T15:05:38.137Z,9.62
2023-02-03T15:08:35.502Z,9.78
2023-02-03T15:11:22.634Z,9.77
2023-02-03T15:13:51.964Z,9.75
2023-02-03T15:16:23.263Z,9.77
2023-02-03T15:18:59.378Z,9.76
2023-02-03T15:21:29.672Z,9.68
2023-02-03T15:24:03.865Z,9.68
2023-02-03T15:26:32.478Z,9.76
2023-02-03T15:29:02.776Z,9.85
2023-02-03T15:31:35.869Z,9.77
2023-02-03T15:34:13.486Z,9.87
2023-02-03T15:36:48.409Z,9.82
2023-02-03T15:39:39.639Z,9.76
2023-02-03T15:42:14.373Z,9.93
2023-02-03T15:44:49.872Z,9.92
2023-02-03T15:47:28.587Z,9.93
2023-02-03T15:50:07.661Z,9.76
2023-02-03T15:52:41.704Z,9.74
2023-02-03T15:55:21.198Z,9.91
2023-02-03T15:57:53.024Z,9.85
2023-02-03T16:00:35.271Z,9.86
2023-02-03T16:03:08.573Z,9.93
2023-02-03T16:05:40.961Z,9.99
2023-02-03T16:08:30.728Z,9.90
2023-02-03T16:11:00.994Z,9.95
2023-02-03T16:13:30.760Z,10.06
2023-02-03T16:16:08.345Z,10.19
2023-02-03T16:18:37.717Z,10.07
2023-02-03T16:21:07.696Z,10.03
2023-02-03T16:23:38.868Z,10.13
2023-02-03T16:26:20.836Z,10.12
2023-02-03T16:29:28.981Z,9.99
2023-02-03T16:32:15.495Z,9.97
2023-02-03T16:35:03.127Z,10.09
2023-02-03T16:37:50.938Z,10.05
2023-02-03T16:40:41.708Z,9.98
2023-02-03T16:43:34.660Z,10.11
2023-02-03T16:46:20.712Z,10.00
2023-02-03T16:49:06.697Z,10.13
2023-02-03T16:51:39.942Z,10.12
2023-02-03T16:54:13.097Z,10.16
2023-02-03T16:56:41.080Z,10.04
2023-02-03T16:59:10.697Z,10.05
2023-02-03T17:01:40.736Z,10.13
2023-02-03T17:04:11.820Z,10.19
2023-02-03T17:06:41.844Z,10.27
2023-02-03T17:09:09.978Z,10.17
2023-02-03T17:11:38.823Z,10.15
2023-02-03T17:14:08.772Z,10.24
2023-02-03T17:16:38.825Z,10.17
2023-02-03T17:19:07.913Z,10.26
2023-02-03T17:21:36.054Z,10.16
2023-02-03T17:24:06.423Z,10.29
2023-02-03T17:26:35.128Z,10.31
2023-02-03T17:29:08.553Z,10.29
2023-02-03T17:31:38.637Z,10.26
2023-02-03T17:34:09.298Z,10.18
2023-02-03T17:36:37.343Z,10.19
2023-02-03T17:55:32.109Z,10.17
2023-02-03T17:58:04.259Z,10.23
2023-02-03T18:00:33.040Z,10.17
2023-02-03T18:03:05.110Z,10.22
2023-02-03T18:05:35.929Z,10.23
2023-02-03T18:08:12.223Z,10.25
2023-02-03T18:10:44.610Z,10.22
2023-02-03T18:13:13.958Z,10.21
2023-02-03T18:15:41.973Z,10.13
2023-02-03T18:18:17.037Z,10.11
2023-02-03T18:20:45.856Z,10.10
2023-02-03T18:23:14.657Z,10.18
2023-02-03T18:25:44.081Z,10.20
2023-02-03T18:28:13.166Z,10.17
2023-02-03T18:30:43.487Z,10.19
2023-02-03T18:33:13.262Z,10.20
2023-02-03T18:35:41.634Z,10.17
2023-02-03T18:38:10.516Z,10.15
2023-02-03T18:40:39.293Z,10.17
2023-02-03T18:43:08.407Z,10.18
2023-02-03T18:45:40.738Z,10.18
2023-02-03T18:48:11.721Z,10.14
2023-02-03T18:50:45.215Z,10.16
2023-02-03T18:53:18.207Z,10.18
2023-02-03T18:55:46.435Z,10.18
2023-02-03T18:58:14.505Z,10.15
2023-02-03T19:00:45.417Z,10.20
2023-02-03T19:03:14.514Z,10.21
2023-02-03T19:05:44.245Z,10.21
2023-02-03T19:08:12.681Z,10.10
2023-02-03T19:10:40.864Z,10.08
2023-02-03T19:13:18.525Z,10.16
2023-02-03T19:15:49.423Z,10.06
2023-02-03T19:18:20.262Z,10.09
2023-02-03T19:20:54.214Z,10.02
2023-02-03T19:23:25.702Z,10.02
2023-02-03T19:25:56.432Z,10.04
2023-02-03T19:28:30.918Z,10.02
2023-02-03T19:31:08.121Z,10.07
2023-02-03T19:33:37.668Z,9.96
2023-02-03T19:36:12.321Z,9.95
2023-02-03T19:38:41.895Z,10.03
2023-02-03T19:41:11.949Z,10.02
2023-02-03T19:43:41.453Z,9.93
2023-02-03T19:46:11.359Z,9.91
2023-02-03T19:48:44.784Z,10.04
2023-02-03T19:51:14.184Z,9.92
2023-02-03T19:53:43.368Z,9.92
2023-02-03T19:56:12.653Z,10.00
2023-02-03T19:58:46.445Z,9.95
2023-02-03T20:01:14.714Z,10.09
2023-02-03T20:03:44.176Z,10.00
2023-02-03T20:06:12.081Z,9.75
2023-02-03T20:08:45.072Z,9.91
2023-02-03T20:11:15.157Z,9.76
2023-02-03T20:13:47.859Z,9.80
2023-02-03T20:16:16.366Z,9.80
2023-02-03T20:18:51.871Z,9.92
2023-02-03T20:21:20.225Z,9.76
2023-02-03T20:23:49.736Z,9.82
2023-02-03T20:26:17.816Z,9.64
2023-02-03T20:28:52.155Z,9.68
2023-02-03T20:31:27.949Z,9.90
2023-02-03T20:33:55.992Z,9.85
2023-02-03T20:36:26.612Z,9.97
2023-02-03T20:38:58.902Z,9.87
2023-02-03T20:41:27.172Z,9.87
2023-02-03T20:43:57.457Z,9.84
2023-02-03T20:46:27.277Z,9.80
2023-02-03T20:48:56.091Z,9.70
2023-02-03T20:51:28.981Z,9.77
2023-02-03T20:53:59.270Z,9.83
2023-02-03T20:56:30.607Z,9.74
2023-02-03T20:58:59.827Z,9.80
2023-02-03T21:01:30.199Z,9.88
2023-02-03T21:04:19.253Z,9.97
2023-02-03T21:06:47.159Z,9.86
2023-02-03T21:09:24.386Z,9.96
2023-02-03T21:11:53.325Z,10.02
2023-02-03T21:14:26.703Z,9.99
2023-02-03T21:16:56.247Z,9.97
2023-02-03T21:19:32.128Z,9.89
2023-02-03T21:22:16.984Z,9.94
2023-02-03T21:24:53.850Z,9.86
2023-02-03T21:27:29.915Z,9.70
2023-02-03T21:29:59.088Z,9.85
2023-02-03T21:32:40.333Z,9.92
2023-02-03T21:35:24.346Z,9.89
2023-02-03T21:37:57.367Z,9.93
2023-02-03T21:40:33.268Z,9.88
2023-02-03T21:43:03.885Z,9.91
2023-02-03T21:45:40.189Z,9.90
2023-02-03T21:48:42.034Z,9.80
2023-02-03T21:51:17.562Z,9.82
2023-02-03T21:53:51.301Z,9.80
2023-02-03T21:56:27.642Z,9.66
2023-02-03T21:59:02.176Z,9.77
2023-02-03T22:01:37.631Z,9.78
2023-02-03T22:04:07.386Z,9.63
2023-02-03T22:06:43.640Z,9.74
2023-02-03T22:09:14.895Z,9.66
2023-02-03T22:11:49.742Z,9.68
2023-02-03T22:14:22.010Z,9.67
2023-02-03T22:16:50.222Z,9.61
2023-02-03T22:19:18.530Z,9.75
2023-02-03T22:21:48.624Z,9.69
2023-02-03T22:24:17.248Z,9.65
2023-02-03T22:26:47.605Z,9.65
2023-02-03T22:29:16.134Z,9.55
2023-02-03T22:31:44.691Z,9.63
2023-02-03T22:34:15.713Z,9.51
2023-02-03T22:36:44.786Z,9.54
2023-02-03T22:39:13.362Z,9.61
2023-02-03T22:41:41.426Z,9.63
2023-02-03T22:44:15.905Z,9.41
2023-02-03T22:46:44.187Z,9.58
2023-02-03T22:49:12.074Z,9.57
2023-02-03T22:51:41.057Z,9.59
2023-02-03T22:54:09.449Z,9.55
2023-02-03T22:56:37.547Z,9.46
2023-02-03T22:59:06.454Z,9.60
2023-02-03T23:01:37.211Z,9.27
2023-02-03T23:04:05.861Z,9.47
2023-02-03T23:06:35.264Z,9.39
2023-02-03T23:09:04.399Z,9.47
2023-02-03T23:11:36.349Z,9.55
2023-02-03T23:14:04.902Z,9.55
2023-02-03T23:16:33.077Z,9.50
2023-02-03T23:19:07.439Z,9.46
2023-02-03T23:21:37.214Z,9.41
2023-02-03T23:24:05.760Z,9.31
2023-02-03T23:26:34.098Z,9.52
2023-02-03T23:29:02.780Z,9.37
2023-02-03T23:31:30.799Z,9.35
2023-02-03T23:34:16.572Z,9.37
2023-02-03T23:36:47.395Z,9.42
2023-02-03T23:39:22.652Z,9.51
2023-02-03T23:41:52.229Z,9.46
2023-02-03T23:44:22.945Z,9.52
2023-02-03T23:46:53.207Z,9.50
2023-02-03T23:49:28.874Z,9.44
2023-02-03T23:52:03.948Z,9.38
2023-02-03T23:54:37.422Z,9.34
2023-02-03T23:57:09.069Z,9.33
2023-02-03T23:59:38.154Z,9.24
